createdAt,value
2022-09-07T00:01:51.748Z,6.70
2022-09-07T00:08:27.727Z,7.80
2022-09-07T00:13:03.090Z,7.80
2022-09-07T00:14:51.735Z,8.30
2022-09-07T00:17:39.549Z,8.20
2022-09-07T00:19:09.414Z,8.60
2022-09-07T00:22:28.855Z,7.30
2022-09-07T00:25:26.091Z,7.50
2022-09-07T00:29:40.612Z,7.70
2022-09-07T00:33:59.471Z,8.10
2022-09-07T00:44:31.134Z,9.50
2022-09-07T00:46:02.147Z,10.40
2022-09-07T00:47:33.132Z,11.60
2022-09-07T00:49:32.106Z,10.90
2022-09-07T00:51:52.263Z,11.10
2022-09-07T00:57:17.831Z,13.20
2022-09-07T01:00:24.454Z,13.10
2022-09-07T01:04:23.090Z,13.70
2022-09-07T01:14:27.153Z,14.20
2022-09-07T01:17:36.537Z,14.50
2022-09-07T01:24:57.017Z,14.20
2022-09-07T01:31:14.026Z,14.00
2022-09-07T01:36:21.980Z,14.40
2022-09-07T01:38:32.414Z,13.80
2022-09-07T01:40:35.512Z,13.90
2022-09-07T01:43:12.521Z,12.90
2022-09-07T01:44:43.012Z,13.10
2022-09-07T01:46:40.155Z,12.80
2022-09-07T01:50:22.345Z,12.30
2022-09-07T01:53:43.715Z,11.80
2022-09-07T01:57:47.474Z,11.80
2022-09-07T02:00:25.949Z,12.10
2022-09-07T02:02:14.632Z,11.70
2022-09-07T02:05:03.693Z,12.20
2022-09-07T02:10:13.240Z,10.90
2022-09-07T02:11:42.675Z,11.60
2022-09-07T02:14:29.666Z,11.30
2022-09-07T02:15:58.794Z,11.50
2022-09-07T02:20:14.073Z,12.50
2022-09-07T02:25:44.479Z,11.90
2022-09-07T02:27:32.541Z,12.20
2022-09-07T02:29:01.566Z,12.50
2022-09-07T02:31:02.512Z,12.50
2022-09-07T02:32:58.948Z,13.10
2022-09-07T02:35:27.756Z,11.30
2022-09-07T02:36:58.224Z,10.60
2022-09-07T02:38:27.248Z,12.10
2022-09-07T02:39:56.591Z,11.80
2022-09-07T02:42:28.051Z,12.40
2022-09-07T02:43:57.600Z,10.90
2022-09-07T02:46:15.361Z,13.10
2022-09-07T02:47:47.201Z,13.00
2022-09-07T02:50:14.324Z,12.00
2022-09-07T02:54:03.299Z,12.50
2022-09-07T02:55:12.160Z,12.90
2022-09-07T02:58:19.860Z,12.50
2022-09-07T03:00:45.604Z,13.60
2022-09-07T03:03:54.887Z,13.10
2022-09-07T03:07:35.884Z,13.40
2022-09-07T03:11:21.680Z,13.00
2022-09-07T03:15:16.964Z,13.50
2022-09-07T03:16:27.305Z,13.00
2022-09-07T03:18:42.405Z,12.50
2022-09-07T03:20:34.111Z,13.60
2022-09-07T03:27:15.353Z,12.90
2022-09-07T03:29:18.471Z,13.00
2022-09-07T03:30:47.673Z,13.50
2022-09-07T03:36:18.494Z,13.30
2022-09-07T03:37:45.261Z,14.30
2022-09-07T03:40:33.140Z,14.50
2022-09-07T03:42:32.631Z,13.40
2022-09-07T03:44:30.557Z,13.20
2022-09-07T03:45:59.509Z,12.10
2022-09-07T03:47:28.462Z,12.10
2022-09-07T03:52:54.328Z,11.80
2022-09-07T03:54:23.134Z,12.30
2022-09-07T03:56:51.040Z,10.80
2022-09-07T03:58:20.317Z,10.50
2022-09-07T04:01:45.680Z,10.40
2022-09-07T04:03:15.579Z,10.40
2022-09-07T04:05:13.402Z,9.10
2022-09-07T04:07:12.648Z,8.50
2022-09-07T04:10:38.307Z,8.80
2022-09-07T04:12:07.218Z,9.50
2022-09-07T04:14:25.779Z,8.80
2022-09-07T04:21:48.416Z,7.80
2022-09-07T04:28:12.258Z,7.80
2022-09-07T04:33:26.985Z,7.70
2022-09-07T04:39:15.522Z,7.00
2022-09-07T04:40:43.015Z,7.20
2022-09-07T04:44:54.443Z,7.40
2022-09-07T04:46:24.404Z,7.20
2022-09-07T04:48:22.173Z,6.90
2022-09-07T04:53:16.033Z,7.50
2022-09-07T04:55:44.743Z,7.20
2022-09-07T05:02:17.298Z,7.70
2022-09-07T05:06:33.772Z,7.70
2022-09-07T05:09:30.283Z,8.40
2022-09-07T05:11:30.345Z,7.80
2022-09-07T05:13:58.285Z,8.40
2022-09-07T05:15:46.843Z,7.80
2022-09-07T05:18:14.737Z,8.20
2022-09-07T05:20:34.392Z,8.20
2022-09-07T05:24:30.384Z,8.40
2022-09-07T05:26:56.590Z,9.30
2022-09-07T05:35:26.941Z,8.40
2022-09-07T05:37:54.817Z,8.40
2022-09-07T05:40:22.583Z,8.90
2022-09-07T05:42:22.426Z,8.20
2022-09-07T05:45:50.709Z,8.50
2022-09-07T05:54:08.586Z,11.00
2022-09-07T05:57:07.380Z,9.60
2022-09-07T05:58:38.315Z,10.60
2022-09-07T06:01:34.257Z,12.20
2022-09-07T06:04:01.038Z,12.50
2022-09-07T06:05:29.854Z,13.10
2022-09-07T06:07:27.826Z,13.70
2022-09-07T06:09:30.370Z,13.50
2022-09-07T06:11:55.580Z,14.70
2022-09-07T06:15:52.410Z,15.80
2022-09-07T06:17:22.217Z,17.70
2022-09-07T06:21:19.273Z,16.00
2022-09-07T06:24:15.520Z,18.00
2022-09-07T06:33:36.172Z,18.40
2022-09-07T06:36:04.039Z,18.40
2022-09-07T06:39:30.816Z,20.90
2022-09-07T06:41:59.490Z,21.70
2022-09-07T06:44:46.950Z,20.30
2022-09-07T06:56:40.440Z,20.80
2022-09-07T06:58:10.288Z,20.40
2022-09-07T07:01:57.225Z,21.10
2022-09-07T07:03:56.727Z,21.50
2022-09-07T07:15:10.766Z,21.60
2022-09-07T07:20:35.429Z,21.20
2022-09-07T07:22:23.920Z,19.70
2022-09-07T07:24:08.177Z,22.00
2022-09-07T07:32:23.389Z,19.70
2022-09-07T07:34:50.990Z,20.70
2022-09-07T07:40:16.986Z,20.50
2022-09-07T07:41:55.364Z,21.80
2022-09-07T07:43:08.436Z,20.90
2022-09-07T07:46:36.552Z,19.60
2022-09-07T07:51:22.937Z,19.60
2022-09-07T07:56:16.223Z,21.10
2022-09-07T08:00:12.913Z,22.50
2022-09-07T08:04:39.518Z,20.30
2022-09-07T08:09:32.616Z,18.40
2022-09-07T08:12:00.065Z,21.10
2022-09-07T08:13:29.950Z,21.90
2022-09-07T08:14:59.822Z,20.10
2022-09-07T08:16:29.037Z,22.60
2022-09-07T08:17:57.885Z,19.90
2022-09-07T08:19:56.693Z,22.50
2022-09-07T08:21:46.541Z,22.70
2022-09-07T08:23:24.351Z,21.50
2022-09-07T08:24:53.226Z,22.00
2022-09-07T08:27:50.912Z,20.20
2022-09-07T08:29:48.647Z,21.00
2022-09-07T08:32:45.193Z,22.70
2022-09-07T08:35:41.888Z,23.10
2022-09-07T08:39:55.270Z,22.40
2022-09-07T08:43:50.936Z,21.70
2022-09-07T08:46:48.244Z,23.30
2022-09-07T08:52:38.682Z,21.30
2022-09-07T08:55:36.391Z,18.30
2022-09-07T09:00:40.107Z,21.50
2022-09-07T09:06:11.115Z,21.80
2022-09-07T09:06:59.770Z,21.90
2022-09-07T09:10:38.878Z,19.40
2022-09-07T09:12:37.802Z,20.90
2022-09-07T09:14:56.945Z,21.90
2022-09-07T09:18:43.940Z,22.40
2022-09-07T09:26:25.932Z,20.10
2022-09-07T09:27:56.311Z,20.30
2022-09-07T09:31:32.035Z,20.10
2022-09-07T09:33:01.932Z,19.90
2022-09-07T09:38:51.626Z,21.00
2022-09-07T09:41:19.335Z,21.10
2022-09-07T09:43:17.866Z,21.90
2022-09-07T09:46:37.252Z,19.40
2022-09-07T09:48:06.158Z,19.40
2022-09-07T09:53:23.411Z,20.40
2022-09-07T09:55:37.639Z,18.90
2022-09-07T09:56:51.204Z,22.80
2022-09-07T10:05:25.086Z,19.70
2022-09-07T10:06:54.201Z,22.10
2022-09-07T10:08:23.117Z,22.00
2022-09-07T10:10:20.879Z,24.60
2022-09-07T10:12:20.345Z,24.10
2022-09-07T10:16:09.102Z,24.20
2022-09-07T10:18:11.200Z,26.20
2022-09-07T10:20:39.338Z,27.00
2022-09-07T10:22:09.229Z,26.00
2022-09-07T10:24:00.253Z,25.50
2022-09-07T10:27:01.749Z,25.40
2022-09-07T10:32:15.585Z,25.10
2022-09-07T10:33:42.556Z,25.90
2022-09-07T10:35:11.474Z,25.10
2022-09-07T10:37:09.398Z,24.20
2022-09-07T10:38:40.235Z,22.20
2022-09-07T10:40:13.666Z,23.30
2022-09-07T10:55:16.028Z,26.00
2022-09-07T11:00:09.376Z,26.80
2022-09-07T11:03:45.950Z,25.00
2022-09-07T11:05:45.152Z,27.60
2022-09-07T11:10:11.588Z,25.70
2022-09-07T11:12:10.393Z,26.10
2022-09-07T11:14:37.664Z,27.40
2022-09-07T11:16:50.409Z,26.60
2022-09-07T11:19:37.650Z,26.50
2022-09-07T11:22:35.437Z,24.90
2022-09-07T11:24:25.163Z,25.60
2022-09-07T11:31:22.410Z,24.90
2022-09-07T11:34:52.108Z,24.10
2022-09-07T11:37:48.681Z,25.90
2022-09-07T11:39:19.544Z,24.10
2022-09-07T11:44:42.126Z,25.70
2022-09-07T11:48:36.219Z,25.50
2022-09-07T11:50:34.600Z,26.20
2022-09-07T11:52:33.416Z,25.10
2022-09-07T12:01:22.561Z,24.40
2022-09-07T12:03:00.201Z,25.30
2022-09-07T12:14:29.482Z,24.30
2022-09-07T12:15:57.595Z,22.60
2022-09-07T12:17:26.487Z,23.00
2022-09-07T12:20:24.263Z,23.30
2022-09-07T12:22:51.664Z,24.50
2022-09-07T12:26:16.236Z,20.20
2022-09-07T12:27:44.752Z,23.10
2022-09-07T12:34:39.974Z,22.10
2022-09-07T12:38:03.947Z,23.70
2022-09-07T12:43:31.471Z,23.50
2022-09-07T12:48:18.875Z,23.30
2022-09-07T12:49:48.797Z,22.70
2022-09-07T12:51:59.285Z,24.90
2022-09-07T12:53:48.112Z,24.50
2022-09-07T12:55:27.949Z,23.20
2022-09-07T13:02:50.899Z,20.30
2022-09-07T13:07:36.549Z,19.50
2022-09-07T13:09:06.471Z,19.60
2022-09-07T13:13:01.958Z,18.30
2022-09-07T13:19:40.547Z,21.00
2022-09-07T13:22:07.719Z,18.90
2022-09-07T13:25:03.323Z,17.40
2022-09-07T13:26:32.205Z,18.00
2022-09-07T13:34:17.565Z,19.90
2022-09-07T13:36:45.295Z,19.90
2022-09-07T13:38:43.654Z,20.20
2022-09-07T13:40:13.179Z,19.70
2022-09-07T13:41:42.027Z,19.60
2022-09-07T13:44:39.333Z,20.10
2022-09-07T13:46:09.117Z,17.60
2022-09-07T13:47:38.963Z,17.80
2022-09-07T13:51:26.639Z,19.20
2022-09-07T13:52:56.522Z,20.00
2022-09-07T13:55:44.510Z,19.10
2022-09-07T14:03:28.478Z,17.80
2022-09-07T14:05:27.389Z,19.30
2022-09-07T14:06:58.329Z,18.60
2022-09-07T14:08:25.439Z,18.50
2022-09-07T14:09:54.429Z,17.00
2022-09-07T14:12:13.130Z,16.80
2022-09-07T14:14:45.044Z,17.60
2022-09-07T14:17:14.766Z,15.80
2022-09-07T14:18:44.653Z,16.30
2022-09-07T14:20:36.315Z,16.70
2022-09-07T14:22:05.142Z,17.20
2022-09-07T14:23:32.701Z,18.50
2022-09-07T14:25:04.064Z,19.10
2022-09-07T14:26:32.128Z,17.90
2022-09-07T14:28:51.638Z,18.00
2022-09-07T14:31:08.570Z,17.30
2022-09-07T14:41:49.948Z,16.50
2022-09-07T14:48:51.275Z,14.20
2022-09-07T14:50:21.703Z,14.00
2022-09-07T14:51:49.973Z,13.90
2022-09-07T14:53:49.323Z,14.50
2022-09-07T14:55:19.728Z,14.60
2022-09-07T14:57:40.156Z,11.90
2022-09-07T14:59:09.453Z,12.40
2022-09-07T15:00:38.683Z,11.60
2022-09-07T15:02:09.484Z,11.50
2022-09-07T15:05:29.804Z,11.90
2022-09-07T15:07:03.627Z,11.20
2022-09-07T15:09:19.922Z,12.70
2022-09-07T15:13:15.235Z,12.10
2022-09-07T15:16:04.982Z,11.70
2022-09-07T15:18:57.594Z,12.40
2022-09-07T15:20:25.512Z,11.80
2022-09-07T15:22:27.471Z,12.80
2022-09-07T15:23:57.257Z,12.60
2022-09-07T15:29:40.099Z,12.80
2022-09-07T15:36:13.505Z,12.00
2022-09-07T15:38:59.964Z,11.10
2022-09-07T15:41:42.910Z,10.80
2022-09-07T15:43:20.368Z,9.60
2022-09-07T15:44:44.215Z,9.70
2022-09-07T15:46:13.360Z,8.90
2022-09-07T15:48:39.994Z,8.60
2022-09-07T15:55:37.750Z,10.60
2022-09-07T15:58:32.021Z,10.50
2022-09-07T16:04:12.492Z,9.70
2022-09-07T16:05:42.298Z,9.40
2022-09-07T16:09:39.900Z,9.10
2022-09-07T16:14:56.822Z,10.30
2022-09-07T16:17:26.602Z,8.90
2022-09-07T16:17:55.510Z,9.00
2022-09-07T16:19:55.346Z,10.70
2022-09-07T16:23:56.274Z,11.00
2022-09-07T16:28:28.611Z,10.40
2022-09-07T16:29:59.928Z,10.30
2022-09-07T16:31:27.860Z,8.60
2022-09-07T16:36:51.336Z,9.20
2022-09-07T16:46:28.095Z,7.90
2022-09-07T16:50:19.814Z,10.60
2022-09-07T16:53:39.649Z,7.20
2022-09-07T16:55:08.119Z,7.60
2022-09-07T16:57:07.046Z,8.00
2022-09-07T17:00:07.237Z,8.70
2022-09-07T17:02:24.889Z,8.50
2022-09-07T17:10:11.983Z,6.70
2022-09-07T17:11:40.917Z,6.80
2022-09-07T17:15:08.551Z,7.90
2022-09-07T17:18:05.129Z,8.40
2022-09-07T17:19:34.135Z,7.90
2022-09-07T17:22:30.624Z,7.10
2022-09-07T17:25:27.678Z,7.90
2022-09-07T17:29:13.524Z,7.40
2022-09-07T17:30:43.060Z,6.50
2022-09-07T17:35:57.913Z,7.30
2022-09-07T17:37:28.589Z,6.70
2022-09-07T17:39:48.331Z,6.30
2022-09-07T17:42:14.840Z,6.70
2022-09-07T17:47:13.233Z,6.50
2022-09-07T17:49:08.853Z,7.00
2022-09-07T17:50:37.774Z,7.20
2022-09-07T17:53:19.631Z,7.10
2022-09-07T17:56:45.484Z,6.80
2022-09-07T17:58:45.666Z,6.70
2022-09-07T18:02:05.603Z,6.90
2022-09-07T18:11:44.931Z,6.30
2022-09-07T18:15:48.063Z,7.70
2022-09-07T18:20:24.379Z,6.80
2022-09-07T18:22:53.185Z,6.90
2022-09-07T18:24:22.364Z,6.80
2022-09-07T18:26:21.663Z,6.90
2022-09-07T18:29:03.343Z,6.40
2022-09-07T18:29:51.971Z,7.00
2022-09-07T18:31:41.752Z,7.50
2022-09-07T18:33:40.463Z,7.20
2022-09-07T18:35:09.362Z,6.40
2022-09-07T18:38:08.993Z,6.40
2022-09-07T18:41:25.499Z,6.30
2022-09-07T18:42:54.367Z,6.20
2022-09-07T19:03:52.253Z,6.00
2022-09-07T19:14:02.221Z,6.30
2022-09-07T19:16:20.325Z,6.90
2022-09-07T19:17:50.127Z,7.50
2022-09-07T19:21:17.217Z,7.20
2022-09-07T19:22:47.230Z,6.80
2022-09-07T19:24:45.307Z,6.70
2022-09-07T19:26:15.366Z,7.00
2022-09-07T19:27:44.265Z,7.60
2022-09-07T19:31:39.728Z,7.00
2022-09-07T19:34:27.388Z,8.20
2022-09-07T19:39:11.528Z,7.70
2022-09-07T19:42:10.138Z,8.30
2022-09-07T19:43:39.986Z,8.00
2022-09-07T19:47:56.709Z,8.70
2022-09-07T19:54:35.633Z,9.90
2022-09-07T19:56:34.445Z,10.00
2022-09-07T19:58:03.390Z,10.30
2022-09-07T19:59:32.220Z,9.90
2022-09-07T20:01:02.488Z,9.30
2022-09-07T20:02:31.287Z,9.70
2022-09-07T20:04:01.173Z,10.80
2022-09-07T20:05:50.842Z,10.30
2022-09-07T20:07:49.907Z,10.80
2022-09-07T20:10:17.069Z,10.10
2022-09-07T20:12:46.704Z,10.60
2022-09-07T20:14:14.683Z,10.20
2022-09-07T20:19:11.044Z,10.70
2022-09-07T20:21:09.870Z,11.30
2022-09-07T20:29:16.393Z,11.90
2022-09-07T20:30:25.023Z,12.00
2022-09-07T20:31:54.498Z,11.40
2022-09-07T20:33:24.354Z,11.90
2022-09-07T20:39:16.749Z,13.10
2022-09-07T20:41:45.374Z,13.10
2022-09-07T20:43:44.237Z,13.20
2022-09-07T20:45:33.879Z,12.80
2022-09-07T20:48:03.703Z,13.50
2022-09-07T20:49:32.476Z,13.10
2022-09-07T20:52:21.131Z,13.50
2022-09-07T20:53:49.997Z,13.50
2022-09-07T20:55:20.200Z,13.60
2022-09-07T20:57:19.582Z,13.80
2022-09-07T21:00:49.117Z,14.60
2022-09-07T21:03:46.009Z,14.00
2022-09-07T21:11:09.317Z,15.10
2022-09-07T21:15:08.124Z,15.70
2022-09-07T21:16:37.061Z,14.50
2022-09-07T21:18:37.202Z,15.30
2022-09-07T21:20:06.061Z,16.40
2022-09-07T21:21:38.677Z,16.60
2022-09-07T21:28:49.205Z,18.10
2022-09-07T21:31:36.929Z,17.10
2022-09-07T21:33:35.735Z,16.50
2022-09-07T21:43:01.286Z,18.60
2022-09-07T21:44:31.257Z,18.20
2022-09-07T21:46:29.608Z,20.10
2022-09-07T21:50:26.425Z,20.80
2022-09-07T21:52:25.962Z,21.20
2022-09-07T21:55:41.827Z,21.30
2022-09-07T22:00:27.762Z,21.00
2022-09-07T22:03:48.378Z,21.80
2022-09-07T22:07:32.599Z,22.00
2022-09-07T22:13:16.266Z,23.40
2022-09-07T22:19:39.046Z,25.30
2022-09-07T22:23:26.418Z,26.00
2022-09-07T22:26:33.703Z,24.90
2022-09-07T22:28:02.591Z,25.90
2022-09-07T22:29:31.504Z,27.30
2022-09-07T22:31:01.712Z,25.40
2022-09-07T22:33:01.304Z,26.70
2022-09-07T22:34:33.238Z,26.40
2022-09-07T22:36:23.141Z,27.20
2022-09-07T22:41:53.491Z,27.60
2022-09-07T22:47:39.658Z,27.60
2022-09-07T22:49:08.271Z,26.20
2022-09-07T22:52:07.297Z,27.50
2022-09-07T22:53:37.302Z,28.60
2022-09-07T22:55:56.861Z,27.00
2022-09-07T22:58:46.307Z,27.40
2022-09-07T23:00:16.229Z,28.00
2022-09-07T23:03:43.475Z,29.70
2022-09-07T23:05:12.386Z,26.80
2022-09-07T23:11:09.511Z,26.50
2022-09-07T23:12:39.357Z,26.00
2022-09-07T23:17:27.084Z,25.90
2022-09-07T23:25:25.055Z,24.80
2022-09-07T23:32:30.520Z,22.70
2022-09-07T23:34:30.325Z,24.90
2022-09-07T23:37:26.372Z,25.90
2022-09-07T23:40:26.521Z,26.20
2022-09-07T23:42:23.262Z,26.20
2022-09-07T23:46:10.199Z,25.10
2022-09-07T23:54:46.625Z,24.40
2022-09-07T23:58:33.827Z,24.70
